Main page
METAR-TAF:

METAR-TAF

Airports :

Abadan, Iran

Abadan Airport

latitude: 30-22N, longitude: 048-15E, elevation: 3 m

Current weather observation

The report was made 17 minutes ago, at 17:00 UTC
Wind 10 kt from the West/Northwest
Temperature 35°C
Humidity 19%
Pressure 1001 hPa
Visibility 10 km or more
no clouds below 1500 m and no cumulonimbus

METAR: OIAA 231700Z 29010KT CAVOK 35/08 Q1001

Time: 21:47 (17:17 UTC)

Forecast

The report was made 6 hours and 17 minutes ago, at 11:00 UTC
Forecast valid from 23 at 12 UTC to 24 at 18 UTC
Wind 14 kt from the Northwest
Visibility: 6000 m
Temporary
from 23 at 12 UTC to 23 at 18 UTC
Wind 16 kt from the Northwest with gusts up to 25 kt
Visibility: 3000 m
sand

TAF: OIAA 231100Z 2312/2418 32007MPS 6000 NSC TEMPO 2312/2318 32008G13MPS 3000 SA

Weather observations and forecasts of more than 4000 airports (METAR and TAF reports).

The available stations are represented by yellow and red dots on the map.

Hover mouse over dot to see the name of the station.

Then click to see weather observations and forecasts.

To change the map : click on the green buttons with a black cross to zoom in, on the green button with a dash to zoom out, or on the green arrows for adjacent maps.


METAR-TAF: